createdAt,value
2019-01-09T00:01:31.713Z,3.56
2019-01-09T00:04:19.364Z,3.57
2019-01-09T00:06:47.740Z,3.58
2019-01-09T00:11:50.547Z,3.54
2019-01-09T00:14:38.065Z,3.50
2019-01-09T00:17:06.462Z,3.61
2019-01-09T00:19:34.913Z,3.51
2019-01-09T00:22:03.305Z,3.55
2019-01-09T00:24:50.816Z,3.63
2019-01-09T00:27:19.221Z,3.54
2019-01-09T00:30:06.905Z,3.45
2019-01-09T00:32:54.631Z,3.49
2019-01-09T00:35:42.146Z,3.54
2019-01-09T00:38:29.952Z,3.64
2019-01-09T00:40:58.338Z,3.55
2019-01-09T00:43:45.941Z,3.47
2019-01-09T00:46:33.605Z,3.47
2019-01-09T00:49:02.076Z,3.49
2019-01-09T00:51:30.455Z,3.48
2019-01-09T00:54:18.183Z,3.54
2019-01-09T00:56:46.556Z,3.44
2019-01-09T00:59:34.238Z,3.45
2019-01-09T01:02:41.284Z,3.53
2019-01-09T01:05:49.642Z,3.50
2019-01-09T01:08:58.020Z,3.50
2019-01-09T01:12:05.082Z,3.54
2019-01-09T01:15:13.475Z,3.52
2019-01-09T01:18:20.470Z,3.56
2019-01-09T01:21:28.767Z,3.52
2019-01-09T01:24:35.827Z,3.49
2019-01-09T01:27:42.796Z,3.59
2019-01-09T01:30:49.768Z,3.66
2019-01-09T01:46:13.325Z,3.61
2019-01-09T01:49:20.342Z,3.58
2019-01-09T01:52:28.635Z,3.59
2019-01-09T01:55:36.940Z,3.65
2019-01-09T01:58:43.934Z,3.53
2019-01-09T02:01:50.923Z,3.42
2019-01-09T02:04:59.231Z,3.39
2019-01-09T02:08:06.250Z,3.35
2019-01-09T02:11:14.312Z,3.34
2019-01-09T02:14:22.778Z,3.25
2019-01-09T02:17:11.990Z,3.29
2019-01-09T02:20:20.403Z,3.33
2019-01-09T02:23:28.761Z,3.22
2019-01-09T02:26:35.762Z,3.29
2019-01-09T02:29:42.909Z,3.23
2019-01-09T02:32:31.046Z,3.22
2019-01-09T02:35:18.777Z,3.18
2019-01-09T02:38:06.424Z,3.18
2019-01-09T02:46:02.384Z,3.27
2019-01-09T02:48:30.789Z,3.15
2019-01-09T02:50:59.256Z,3.11
2019-01-09T02:53:46.883Z,3.06
2019-01-09T02:58:49.100Z,3.01
2019-01-09T03:01:17.534Z,3.00
2019-01-09T03:04:05.201Z,2.92
2019-01-09T03:06:52.948Z,2.90
2019-01-09T03:09:40.613Z,2.80
2019-01-09T03:12:09.058Z,2.80
2019-01-09T03:14:56.721Z,2.77
2019-01-09T03:17:25.179Z,2.84
2019-01-09T03:19:53.627Z,2.71
2019-01-09T03:22:41.292Z,2.80
2019-01-09T03:25:28.833Z,2.75
2019-01-09T03:27:57.251Z,2.66
2019-01-09T03:30:44.880Z,2.65
2019-01-09T03:33:32.406Z,2.67
2019-01-09T03:36:00.805Z,2.65
2019-01-09T03:38:29.194Z,2.59
2019-01-09T03:41:16.815Z,2.62
2019-01-09T03:43:45.294Z,2.65
2019-01-09T03:46:32.782Z,2.66
2019-01-09T03:49:20.468Z,2.63
2019-01-09T03:52:07.995Z,2.60
2019-01-09T03:54:36.381Z,2.61
2019-01-09T03:57:24.108Z,2.69
2019-01-09T04:00:11.742Z,2.80
2019-01-09T04:02:40.166Z,2.85
2019-01-09T04:05:08.610Z,2.81
2019-01-09T04:07:37.087Z,2.82
2019-01-09T04:10:45.427Z,2.92
2019-01-09T04:13:13.913Z,2.93
2019-01-09T04:15:42.283Z,2.88
2019-01-09T04:18:29.851Z,2.86
2019-01-09T04:20:58.251Z,2.86
2019-01-09T04:23:45.800Z,2.85
2019-01-09T04:26:14.192Z,2.92
2019-01-09T04:29:01.846Z,2.89
2019-01-09T04:31:30.341Z,2.83
2019-01-09T04:36:52.134Z,2.79
2019-01-09T04:39:20.552Z,2.79
2019-01-09T04:41:48.956Z,2.81
2019-01-09T04:44:17.461Z,2.78
2019-01-09T04:46:45.889Z,2.80
2019-01-09T04:49:14.332Z,2.77
2019-01-09T04:51:42.725Z,2.69
2019-01-09T04:56:45.038Z,2.66
2019-01-09T04:59:32.663Z,2.67
2019-01-09T05:02:01.039Z,2.75
2019-01-09T05:04:49.505Z,2.80
2019-01-09T05:07:18.873Z,2.86
2019-01-09T05:10:06.492Z,2.71
2019-01-09T05:15:22.308Z,2.64
2019-01-09T05:18:09.927Z,2.53
2019-01-09T05:20:57.427Z,2.48
2019-01-09T05:23:25.805Z,2.51
2019-01-09T05:26:13.533Z,2.48
2019-01-09T05:28:41.900Z,2.45
2019-01-09T05:31:10.283Z,2.49
2019-01-09T05:33:57.896Z,2.51
2019-01-09T05:36:45.397Z,2.52
2019-01-09T05:39:39.702Z,2.50
2019-01-09T05:42:22.103Z,2.58
2019-01-09T05:44:50.478Z,2.62
2019-01-09T05:47:18.846Z,2.65
2019-01-09T05:50:06.943Z,2.74
2019-01-09T05:52:54.562Z,2.74
2019-01-09T05:55:22.947Z,2.70
2019-01-09T05:58:10.560Z,2.71
2019-01-09T06:00:38.943Z,2.73
2019-01-09T06:05:54.756Z,2.66
2019-01-09T06:08:42.242Z,2.67
2019-01-09T06:11:29.733Z,2.70
2019-01-09T06:13:58.101Z,2.77
2019-01-09T06:16:45.725Z,2.72
2019-01-09T06:19:14.103Z,2.60
2019-01-09T06:21:42.476Z,2.63
2019-01-09T06:24:10.848Z,2.70
2019-01-09T06:26:58.340Z,2.63
2019-01-09T06:29:45.952Z,2.65
2019-01-09T06:32:33.590Z,2.65
2019-01-09T06:37:36.413Z,2.62
2019-01-09T06:40:44.697Z,2.59
2019-01-09T06:43:13.065Z,2.58
2019-01-09T06:46:00.560Z,2.59
2019-01-09T06:48:28.933Z,2.57
2019-01-09T06:50:57.309Z,2.59
2019-01-09T06:53:25.727Z,2.64
2019-01-09T06:56:13.311Z,2.58
2019-01-09T06:59:33.587Z,2.58
2019-01-09T07:01:51.706Z,2.66
2019-01-09T07:04:20.077Z,2.57
2019-01-09T07:07:07.573Z,2.61
2019-01-09T07:09:35.942Z,2.68
2019-01-09T07:12:04.327Z,2.73
2019-01-09T07:14:51.815Z,2.68
2019-01-09T07:17:20.194Z,2.72
2019-01-09T07:20:07.877Z,2.70
2019-01-09T07:22:55.372Z,2.73
2019-01-09T07:25:23.741Z,2.77
2019-01-09T07:28:11.364Z,2.68
2019-01-09T07:30:39.741Z,2.63
2019-01-09T07:33:08.123Z,2.58
2019-01-09T07:35:55.875Z,2.58
2019-01-09T07:38:24.246Z,2.66
2019-01-09T07:41:11.967Z,2.66
2019-01-09T07:46:27.777Z,2.66
2019-01-09T07:48:56.145Z,2.68
2019-01-09T07:51:24.520Z,2.67
2019-01-09T07:53:52.896Z,2.64
2019-01-09T07:56:40.518Z,2.70
2019-01-09T07:59:08.888Z,2.63
2019-01-09T08:01:37.271Z,2.56
2019-01-09T08:04:05.647Z,2.60
2019-01-09T08:06:34.338Z,2.59
2019-01-09T08:09:36.152Z,2.65
2019-01-09T08:11:52.075Z,2.57
2019-01-09T08:14:39.633Z,2.58
2019-01-09T08:17:08.012Z,2.58
2019-01-09T08:19:36.378Z,2.62
2019-01-09T08:22:04.752Z,2.67
2019-01-09T08:24:52.379Z,2.78
2019-01-09T08:27:39.870Z,2.73
2019-01-09T08:30:48.152Z,2.73
2019-01-09T08:33:16.533Z,2.67
2019-01-09T08:35:44.902Z,2.73
2019-01-09T08:38:13.282Z,2.70
2019-01-09T08:41:00.770Z,2.73
2019-01-09T08:43:48.403Z,2.74
2019-01-09T08:46:36.019Z,2.75
2019-01-09T08:49:23.758Z,2.79
2019-01-09T08:51:52.130Z,2.74
2019-01-09T08:54:39.625Z,2.72
2019-01-09T08:57:07.995Z,2.76
2019-01-09T08:59:36.385Z,2.75
2019-01-09T09:02:04.753Z,2.73
2019-01-09T09:04:33.135Z,2.88
2019-01-09T09:07:01.503Z,2.82
2019-01-09T09:10:09.789Z,2.96
2019-01-09T09:12:38.169Z,2.90
2019-01-09T09:15:46.450Z,2.96
2019-01-09T09:18:14.833Z,3.01
2019-01-09T09:21:02.460Z,3.10
2019-01-09T09:23:30.838Z,3.09
2019-01-09T09:25:59.210Z,3.06
2019-01-09T09:28:46.839Z,3.06
2019-01-09T09:31:34.454Z,3.09
2019-01-09T09:34:22.084Z,3.11
2019-01-09T09:37:09.571Z,3.11
2019-01-09T09:39:37.948Z,3.13
2019-01-09T09:42:25.433Z,3.09
2019-01-09T09:44:53.813Z,3.14
2019-01-09T09:47:22.187Z,3.24
2019-01-09T09:49:50.556Z,3.30
2019-01-09T09:52:18.931Z,3.36
2019-01-09T09:54:47.309Z,3.15
2019-01-09T09:57:15.682Z,3.02
2019-01-09T10:00:03.312Z,3.09
2019-01-09T10:02:31.677Z,3.11
2019-01-09T10:05:00.268Z,3.29
2019-01-09T10:07:30.145Z,3.34
2019-01-09T10:09:58.531Z,3.32
2019-01-09T10:12:26.897Z,3.29
2019-01-09T10:14:55.283Z,3.30
2019-01-09T10:17:43.071Z,3.23
2019-01-09T10:20:51.357Z,3.29
2019-01-09T10:23:19.734Z,3.22
2019-01-09T10:25:48.112Z,3.24
2019-01-09T10:28:35.597Z,3.30
2019-01-09T10:34:17.344Z,3.26
2019-01-09T10:36:45.718Z,3.35
2019-01-09T10:39:14.089Z,3.22
2019-01-09T10:41:42.468Z,3.28
2019-01-09T10:44:18.657Z,3.26
2019-01-09T10:46:40.952Z,3.22
2019-01-09T10:49:09.316Z,3.29
2019-01-09T10:51:37.693Z,3.29
2019-01-09T10:56:53.505Z,3.29
2019-01-09T10:59:21.919Z,3.31
2019-01-09T11:02:09.537Z,3.26
2019-01-09T11:04:57.188Z,3.29
2019-01-09T11:07:25.612Z,3.33
2019-01-09T11:09:53.996Z,3.38
2019-01-09T11:12:22.412Z,3.35
2019-01-09T11:14:50.782Z,3.41
2019-01-09T11:17:38.471Z,3.42
2019-01-09T11:20:46.720Z,3.50
2019-01-09T11:23:15.091Z,3.46
2019-01-09T11:26:02.628Z,3.44
2019-01-09T11:28:30.998Z,3.53
2019-01-09T11:30:59.383Z,3.42
2019-01-09T11:33:27.789Z,3.31
2019-01-09T11:35:56.169Z,3.43
2019-01-09T11:38:24.552Z,3.50
2019-01-09T11:41:12.180Z,3.47
2019-01-09T11:43:59.795Z,3.42
2019-01-09T11:46:28.175Z,3.38
2019-01-09T11:48:56.542Z,3.40
2019-01-09T11:51:24.916Z,3.35
2019-01-09T11:54:12.539Z,3.45
2019-01-09T11:57:00.172Z,3.45
2019-01-09T11:59:28.565Z,3.39
2019-01-09T12:02:21.983Z,3.35
2019-01-09T12:04:46.295Z,3.30
2019-01-09T12:07:14.689Z,3.23
2019-01-09T12:12:30.501Z,3.28
2019-01-09T12:14:58.881Z,3.22
2019-01-09T12:17:46.394Z,3.19
2019-01-09T12:20:54.698Z,3.25
2019-01-09T12:23:23.068Z,3.30
2019-01-09T12:26:10.789Z,3.36
2019-01-09T12:28:58.279Z,3.34
2019-01-09T12:31:26.659Z,3.35
2019-01-09T12:33:55.028Z,3.40
2019-01-09T12:36:42.658Z,3.45
2019-01-09T12:39:13.298Z,3.46
2019-01-09T12:44:34.692Z,3.39
2019-01-09T12:47:03.391Z,3.40
2019-01-09T12:49:31.774Z,3.37
2019-01-09T12:54:34.445Z,3.41
2019-01-09T12:57:22.123Z,3.39
2019-01-09T12:59:50.551Z,3.40
2019-01-09T13:02:18.994Z,3.61
2019-01-09T13:07:34.839Z,3.45
2019-01-09T13:10:22.477Z,3.56
2019-01-09T13:13:10.108Z,3.58
2019-01-09T13:15:38.488Z,3.49
2019-01-09T13:18:26.108Z,3.59
2019-01-09T13:21:13.726Z,3.55
2019-01-09T13:23:42.105Z,3.65
2019-01-09T13:26:10.498Z,3.64
2019-01-09T13:28:38.880Z,3.65
2019-01-09T13:31:07.264Z,3.60
2019-01-09T13:33:54.761Z,3.49
2019-01-09T13:36:23.135Z,3.52
2019-01-09T13:39:10.779Z,3.49
2019-01-09T13:41:39.154Z,3.45
2019-01-09T13:44:47.442Z,3.55
2019-01-09T13:53:17.335Z,3.43
2019-01-09T13:55:45.706Z,3.44
2019-01-09T13:58:14.087Z,3.58
2019-01-09T14:00:42.463Z,3.47
2019-01-09T14:03:30.111Z,3.32
2019-01-09T14:06:17.818Z,3.25
2019-01-09T14:09:05.318Z,3.27
2019-01-09T14:11:52.979Z,3.19
2019-01-09T14:14:21.357Z,3.30
2019-01-09T14:16:49.737Z,3.22
2019-01-09T14:19:18.126Z,3.18
2019-01-09T14:21:46.549Z,3.16
2019-01-09T14:24:22.349Z,3.30
2019-01-09T14:27:09.892Z,3.33
2019-01-09T14:29:38.304Z,3.25
2019-01-09T14:32:25.928Z,3.10
2019-01-09T14:34:54.310Z,3.07
2019-01-09T14:37:41.975Z,3.12
2019-01-09T14:40:50.226Z,3.14
2019-01-09T14:46:12.983Z,3.24
2019-01-09T14:48:41.389Z,3.20
2019-01-09T14:56:52.121Z,3.14
2019-01-09T14:59:39.846Z,3.18
2019-01-09T15:05:16.545Z,3.12
2019-01-09T15:08:04.132Z,3.02
2019-01-09T15:10:32.660Z,3.10
2019-01-09T15:13:20.375Z,3.21
2019-01-09T15:15:48.761Z,3.31
2019-01-09T15:18:36.378Z,3.15
2019-01-09T15:21:24.001Z,2.94
2019-01-09T15:23:52.370Z,2.97
2019-01-09T15:26:40.036Z,2.90
2019-01-09T15:29:27.694Z,2.92
2019-01-09T15:32:15.310Z,3.03
2019-01-09T15:37:37.113Z,2.98
2019-01-09T15:40:45.503Z,2.85
2019-01-09T15:43:33.137Z,2.73
2019-01-09T15:46:01.518Z,2.80
2019-01-09T15:48:49.137Z,2.76
2019-01-09T15:51:17.787Z,2.91
2019-01-09T15:54:05.417Z,3.07
2019-01-09T15:59:08.955Z,3.55
2019-01-09T16:01:57.324Z,3.64
2019-01-09T16:04:25.698Z,3.38
2019-01-09T16:07:13.224Z,3.41
2019-01-09T16:09:41.600Z,3.36
2019-01-09T16:12:29.295Z,3.20
2019-01-09T16:14:57.693Z,3.12
2019-01-09T16:17:45.325Z,3.24
2019-01-09T16:20:53.610Z,3.20
2019-01-09T16:23:21.992Z,3.14
2019-01-09T16:25:50.438Z,3.08
2019-01-09T16:28:18.947Z,3.22
2019-01-09T16:31:27.246Z,3.11
2019-01-09T16:34:14.979Z,3.28
2019-01-09T16:37:02.472Z,3.15
2019-01-09T16:39:50.094Z,3.18
2019-01-09T16:42:18.529Z,3.10
2019-01-09T16:45:06.011Z,3.13
2019-01-09T16:47:53.507Z,3.21
2019-01-09T16:51:01.800Z,3.12
2019-01-09T16:53:30.242Z,3.18
2019-01-09T16:55:58.609Z,3.36
2019-01-09T16:58:26.988Z,3.23
2019-01-09T17:03:49.715Z,3.21
2019-01-09T17:08:51.811Z,3.17
2019-01-09T17:11:20.190Z,3.12
2019-01-09T17:14:07.816Z,3.22
2019-01-09T17:16:36.188Z,3.15
2019-01-09T17:19:23.814Z,3.17
2019-01-09T17:21:52.202Z,3.14
2019-01-09T17:24:39.866Z,3.17
2019-01-09T17:27:08.369Z,3.08
2019-01-09T17:29:36.798Z,3.06
2019-01-09T17:32:45.138Z,3.00
2019-01-09T17:35:32.621Z,2.97
2019-01-09T17:38:01.014Z,2.96
2019-01-09T17:40:29.452Z,2.96
2019-01-09T17:43:16.953Z,3.11
2019-01-09T17:45:45.350Z,3.06
2019-01-09T17:48:13.735Z,3.04
2019-01-09T17:50:43.885Z,3.09
2019-01-09T17:53:12.290Z,3.07
2019-01-09T17:56:00.158Z,3.09
2019-01-09T17:58:47.642Z,3.04
2019-01-09T18:01:16.035Z,2.99
2019-01-09T18:03:44.410Z,3.07
2019-01-09T18:06:12.836Z,3.13
2019-01-09T18:09:00.467Z,3.03
2019-01-09T18:11:28.880Z,3.00
2019-01-09T18:14:16.374Z,3.11
2019-01-09T18:16:44.753Z,3.03
2019-01-09T18:19:32.255Z,3.04
2019-01-09T18:22:19.868Z,3.02
2019-01-09T18:25:07.435Z,2.98
2019-01-09T18:27:35.860Z,2.96
2019-01-09T18:30:44.140Z,3.00
2019-01-09T18:33:52.515Z,3.00
2019-01-09T18:37:00.806Z,3.02
2019-01-09T18:40:07.819Z,3.02
2019-01-09T18:43:14.810Z,3.01
2019-01-09T18:46:23.284Z,3.02
2019-01-09T18:49:31.713Z,3.01
2019-01-09T18:52:38.724Z,3.02
2019-01-09T18:55:48.829Z,3.04
2019-01-09T18:58:17.265Z,3.13
2019-01-09T19:01:04.970Z,3.07
2019-01-09T19:03:52.640Z,3.08
2019-01-09T19:06:21.026Z,3.17
2019-01-09T19:08:49.558Z,2.98
2019-01-09T19:11:37.174Z,3.06
2019-01-09T19:14:45.469Z,3.10
2019-01-09T19:17:33.277Z,3.03
2019-01-09T19:22:35.685Z,3.10
2019-01-09T19:25:25.181Z,3.18
2019-01-09T19:28:12.817Z,3.17
2019-01-09T19:33:15.092Z,3.08
2019-01-09T19:35:44.761Z,3.14
2019-01-09T19:38:13.670Z,3.11
2019-01-09T19:40:42.094Z,3.06
2019-01-09T19:43:10.570Z,3.08
2019-01-09T19:46:18.881Z,3.14
2019-01-09T19:49:06.689Z,3.15
2019-01-09T19:52:15.032Z,3.11
2019-01-09T19:54:43.462Z,3.13
2019-01-09T19:57:12.045Z,3.04
2019-01-09T20:00:00.185Z,3.09
2019-01-09T20:02:28.550Z,3.08
2019-01-09T20:04:56.978Z,3.02
2019-01-09T20:07:25.412Z,3.13
2019-01-09T20:10:13.121Z,3.15
2019-01-09T20:12:41.626Z,3.15
2019-01-09T20:15:50.046Z,3.23
2019-01-09T20:18:58.274Z,3.22
2019-01-09T20:21:45.915Z,3.15
2019-01-09T20:24:14.370Z,3.13
2019-01-09T20:27:01.941Z,3.23
2019-01-09T20:29:30.381Z,3.19
2019-01-09T20:32:18.007Z,3.16
2019-01-09T20:34:46.511Z,3.14
2019-01-09T20:37:14.880Z,3.19
2019-01-09T20:42:49.913Z,3.06
2019-01-09T20:45:58.206Z,3.06
2019-01-09T20:48:26.619Z,3.17
2019-01-09T20:53:28.990Z,2.97
2019-01-09T20:56:37.344Z,2.98
2019-01-09T21:02:13.868Z,3.10
2019-01-09T21:04:42.305Z,3.10
2019-01-09T21:07:30.015Z,3.18
2019-01-09T21:09:58.416Z,3.21
2019-01-09T21:12:26.797Z,3.22
2019-01-09T21:15:14.420Z,3.11
2019-01-09T21:18:02.184Z,3.12
2019-01-09T21:20:30.501Z,3.04
2019-01-09T21:22:58.941Z,3.10
2019-01-09T21:28:35.437Z,3.02
2019-01-09T21:31:03.814Z,3.08
2019-01-09T21:33:51.592Z,3.07
2019-01-09T21:41:53.297Z,3.23
2019-01-09T21:44:17.954Z,3.14
2019-01-09T21:47:05.603Z,3.29
2019-01-09T21:49:53.225Z,3.36
2019-01-09T21:52:21.645Z,3.21
2019-01-09T21:55:09.237Z,3.17
2019-01-09T21:57:56.879Z,3.02
2019-01-09T22:00:44.635Z,2.84
2019-01-09T22:05:51.848Z,2.80
2019-01-09T22:08:39.598Z,2.84
2019-01-09T22:11:08.006Z,2.79
2019-01-09T22:13:55.511Z,2.92
2019-01-09T22:16:24.075Z,2.80
2019-01-09T22:18:52.513Z,2.95
2019-01-09T22:21:40.096Z,2.90
2019-01-09T22:24:08.475Z,2.89
2019-01-09T22:26:56.011Z,2.85
2019-01-09T22:29:43.703Z,2.88
2019-01-09T22:35:46.102Z,2.77
2019-01-09T22:38:33.656Z,2.84
2019-01-09T22:41:02.069Z,2.79
2019-01-09T22:43:49.768Z,2.76
2019-01-09T22:46:18.189Z,2.80
2019-01-09T22:49:05.719Z,2.72
2019-01-09T22:51:34.146Z,2.70
2019-01-09T22:54:21.673Z,2.67
2019-01-09T22:56:50.056Z,2.64
2019-01-09T22:59:18.734Z,2.85
2019-01-09T23:01:47.122Z,2.80
2019-01-09T23:06:51.145Z,2.73
2019-01-09T23:09:19.554Z,2.68
2019-01-09T23:11:47.921Z,2.65
2019-01-09T23:14:35.693Z,2.64
2019-01-09T23:17:04.067Z,2.70
2019-01-09T23:19:32.774Z,2.71
2019-01-09T23:22:01.211Z,2.64
2019-01-09T23:24:29.591Z,2.69
2019-01-09T23:29:45.439Z,2.75
2019-01-09T23:32:33.151Z,2.81
2019-01-09T23:35:41.557Z,2.91
2019-01-09T23:38:29.096Z,2.87
2019-01-09T23:40:57.477Z,2.97
2019-01-09T23:43:25.869Z,3.03
2019-01-09T23:46:34.803Z,3.03
2019-01-09T23:49:04.314Z,2.79
2019-01-09T23:51:51.945Z,2.76
2019-01-09T23:54:20.330Z,2.86
2019-01-09T23:56:48.700Z,3.01
2019-01-09T23:59:17.089Z,3.16
